Time;durP1;ratioP1;P1;durP2;ratioP2;P2;SDS_P1;SDS_P2;PMS_P1;PMS_P2;Temp;Humidity;BMP_temperature;BMP_pressure;BME280_temperature;BME280_humidity;BME280_pressure;Samples;Min_cycle;Max_cycle;Signal;HPM_P1;HPM_P2
2021/12/21 00:02:04;;;;;;;3.80;2.30;;;;;;;-0.77;75.95;100781.35;104968;1286;72397;-91
2021/12/21 00:04:33;;;;;;;3.20;2.10;;;;;;;-0.83;76.13;100785.09;105323;1284;74402;-90
2021/12/21 00:07:05;;;;;;;3.70;2.70;;;;;;;-0.82;75.94;100792.24;104692;1286;60307;-90
2021/12/21 00:09:33;;;;;;;4.40;2.90;;;;;;;-0.86;75.82;100800.88;105163;1285;61187;-90
2021/12/21 00:12:03;;;;;;;5.10;3.00;;;;;;;-0.87;75.35;100806.91;106169;1285;71498;-91
2021/12/21 00:14:51;;;;;;;4.80;2.80;;;;;;;-0.92;74.99;100812.15;105155;1285;70983;-90
2021/12/21 00:17:45;;;;;;;4.00;2.30;;;;;;;-0.87;73.93;100822.13;105294;1284;71180;-92
2021/12/21 00:20:28;;;;;;;3.50;1.90;;;;;;;-0.89;72.43;100823.37;105270;1284;73836;-88
2021/12/21 00:25:38;;;;;;;3.50;1.70;;;;;;;-0.96;71.03;100837.71;104984;1286;61155;-84
2021/12/21 00:28:07;;;;;;;2.60;1.60;;;;;;;-1.01;70.03;100833.89;104988;1285;71189;-85
2021/12/21 00:30:36;;;;;;;3.30;1.70;;;;;;;-1.02;69.45;100835.98;104969;1285;69672;-85
2021/12/21 00:33:05;;;;;;;1.80;1.40;;;;;;;-1.11;69.08;100839.59;104989;1282;68299;-86
2021/12/21 00:35:34;;;;;;;3.20;2.00;;;;;;;-1.15;68.83;100843.79;104939;1282;74401;-85
2021/12/21 00:38:04;;;;;;;2.60;1.50;;;;;;;-1.13;68.82;100835.70;104916;1286;61226;-84
2021/12/21 00:40:33;;;;;;;3.20;1.40;;;;;;;-1.16;68.84;100853.02;105024;1285;60337;-84
2021/12/21 00:43:02;;;;;;;2.10;1.40;;;;;;;-1.14;68.23;100854.00;105049;1285;72618;-82
2021/12/21 00:45:31;;;;;;;1.30;0.90;;;;;;;-1.18;68.43;100854.95;105174;1285;70402;-85
2021/12/21 00:48:00;;;;;;;2.20;1.40;;;;;;;-1.23;68.43;100858.98;105209;1284;68039;-85
2021/12/21 00:50:29;;;;;;;2.60;1.20;;;;;;;-1.22;68.56;100862.39;105088;1285;73226;-83
2021/12/21 00:52:58;;;;;;;3.80;1.50;;;;;;;-1.31;68.31;100874.55;105386;1285;59377;-81
2021/12/21 00:55:27;;;;;;;2.80;1.60;;;;;;;-1.31;67.03;100876.27;105363;1285;59785;-83
2021/12/21 00:57:56;;;;;;;2.20;1.40;;;;;;;-1.34;66.59;100882.13;105044;1285;71089;-85
2021/12/21 01:00:26;;;;;;;2.20;1.40;;;;;;;-1.45;66.70;100885.58;104978;1287;70424;-83
2021/12/21 01:02:57;;;;;;;1.70;1.40;;;;;;;-1.43;67.02;100889.66;105019;1282;69875;-85
2021/12/21 01:05:34;;;;;;;2.50;1.70;;;;;;;-1.46;67.42;100897.40;104988;1287;71901;-84
2021/12/21 01:08:05;;;;;;;3.40;1.90;;;;;;;-1.53;68.00;100897.89;105068;1285;59674;-83
2021/12/21 01:16:00;;;;;;;2.40;1.50;;;;;;;-1.71;69.52;100910.85;106971;1285;71997;-90
2021/12/21 01:18:54;;;;;;;4.10;1.80;;;;;;;-1.81;70.43;100917.36;105354;1285;69483;-89
2021/12/21 01:21:28;;;;;;;2.50;1.70;;;;;;;-1.76;68.85;100938.63;104979;1285;73534;-79
2021/12/21 01:34:16;;;;;;;3.60;1.10;;;;;;;-2.32;64.60;100942.80;104766;1285;70404;-78
2021/12/21 01:36:52;;;;;;;;;;;;;;;-2.34;62.99;100945.89;104975;1285;72472;-82
2021/12/21 01:42:01;;;;;;;2.50;1.50;;;;;;;-2.54;62.31;100946.89;104953;1282;59517;-81
2021/12/21 01:49:57;;;;;;;2.80;1.80;;;;;;;-2.84;63.53;100938.95;104998;1282;72053;-82
2021/12/21 01:52:28;;;;;;;2.60;1.50;;;;;;;-2.84;63.99;100938.44;105017;1285;75853;-83
2021/12/21 01:54:57;;;;;;;3.40;1.60;;;;;;;-2.85;64.63;100943.40;104962;1285;63829;-77
2021/12/21 01:57:25;;;;;;;2.00;1.60;;;;;;;-2.81;63.39;100942.16;104958;1282;60609;-79
2021/12/21 01:59:54;;;;;;;3.20;1.80;;;;;;;-2.82;60.91;100958.18;104896;1285;72663;-78
2021/12/21 02:02:23;;;;;;;2.20;1.30;;;;;;;-2.89;59.69;100959.98;104759;1285;69492;-77
2021/12/21 02:04:52;;;;;;;3.20;1.50;;;;;;;-2.98;58.05;100961.13;105439;1284;70591;-80
2021/12/21 02:07:22;;;;;;;2.70;1.40;;;;;;;-3.05;56.73;100973.98;105888;1286;72738;-78
2021/12/21 02:09:50;;;;;;;3.30;1.70;;;;;;;-3.14;55.81;100971.55;104872;1282;62435;-79
2021/12/21 02:12:20;;;;;;;2.10;1.20;;;;;;;-3.18;54.12;100966.83;104861;1285;60540;-78
2021/12/21 02:14:57;;;;;;;2.40;1.40;;;;;;;-3.26;54.54;100977.48;104838;1286;72874;-78
2021/12/21 02:20:27;;;;;;;2.40;1.30;;;;;;;-3.33;54.38;100988.30;104831;1285;69193;-80
2021/12/21 02:23:03;;;;;;;2.30;1.00;;;;;;;-3.35;54.61;100998.53;104870;1285;74086;-77
2021/12/21 02:30:53;;;;;;;2.90;1.70;;;;;;;-3.49;56.99;101003.60;105465;1286;70242;-79
2021/12/21 02:33:25;;;;;;;3.30;1.40;;;;;;;-3.54;57.76;101003.98;105174;1282;70648;-77
2021/12/21 02:35:55;;;;;;;2.70;1.60;;;;;;;-3.58;58.78;101008.30;104928;1284;70638;-77
2021/12/21 02:38:25;;;;;;;2.60;1.40;;;;;;;-3.62;59.30;101017.86;104948;1286;74348;-79
2021/12/21 02:40:55;;;;;;;2.10;1.20;;;;;;;-3.67;59.76;101009.05;104871;1285;60269;-79
2021/12/21 02:43:24;;;;;;;2.40;1.40;;;;;;;-3.73;59.82;101016.59;104773;1286;59569;-80
2021/12/21 02:45:52;;;;;;;2.10;1.50;;;;;;;-3.78;60.01;101016.46;104784;1282;74665;-79
2021/12/21 02:48:21;;;;;;;2.80;1.60;;;;;;;-3.76;60.06;101026.82;104865;1286;71935;-79
2021/12/21 02:50:50;;;;;;;2.40;1.30;;;;;;;-3.80;60.94;101028.23;104795;1285;69862;-79
2021/12/21 02:53:19;;;;;;;3.70;1.60;;;;;;;-3.76;61.42;101027.17;104802;1284;73194;-83
2021/12/21 02:55:48;;;;;;;2.40;1.40;;;;;;;-3.78;60.74;101027.02;104679;1286;59893;-80
2021/12/21 02:58:17;;;;;;;3.00;1.30;;;;;;;-3.73;60.67;101033.79;104764;1285;59796;-79
2021/12/21 03:00:47;;;;;;;2.70;1.50;;;;;;;-3.69;59.79;101052.15;104722;1285;73397;-78
2021/12/21 03:03:16;;;;;;;2.10;1.60;;;;;;;-3.67;59.41;101044.30;104931;1285;71893;-84
2021/12/21 03:05:50;;;;;;;2.30;1.40;;;;;;;-3.71;59.93;101050.12;104987;1285;71093;-81
2021/12/21 03:08:34;;;;;;;2.30;1.70;;;;;;;-3.71;60.67;101067.64;104776;1286;72909;-80
2021/12/21 03:17:00;;;;;;;1.90;1.50;;;;;;;-3.95;61.34;101072.43;104454;1289;72039;-78
2021/12/21 03:19:29;;;;;;;3.00;1.70;;;;;;;-3.96;62.26;101070.90;104866;1285;70808;-77
2021/12/21 03:21:58;;;;;;;2.30;1.30;;;;;;;-3.97;61.80;101083.84;104816;1285;69219;-79
2021/12/21 03:24:27;;;;;;;2.90;1.50;;;;;;;-3.98;62.05;101099.16;104762;1282;74935;-77
2021/12/21 03:26:56;;;;;;;3.00;1.70;;;;;;;-4.06;61.92;101096.83;104577;1286;60018;-76
2021/12/21 03:29:25;;;;;;;4.50;1.80;;;;;;;-4.12;61.72;101097.02;104687;1285;61456;-76
2021/12/21 03:31:54;;;;;;;2.00;1.60;;;;;;;-4.19;61.85;101106.08;104799;1285;71771;-77
2021/12/21 03:34:23;;;;;;;2.40;1.70;;;;;;;-4.19;61.57;101108.13;104726;1282;70785;-76
2021/12/21 03:36:52;;;;;;;2.00;1.20;;;;;;;-4.19;61.38;101113.23;104807;1282;68261;-76
2021/12/21 03:39:22;;;;;;;2.40;1.60;;;;;;;-4.16;61.41;101114.91;104627;1286;72075;-75
2021/12/21 03:41:56;;;;;;;1.50;1.30;;;;;;;-4.18;61.43;101119.02;104748;1281;59875;-73
2021/12/21 03:44:26;;;;;;;4.60;2.20;;;;;;;-4.25;61.11;101122.61;104819;1286;60540;-78
2021/12/21 03:46:56;;;;;;;4.50;1.60;;;;;;;-4.29;61.00;101121.96;104801;1286;71419;-79
2021/12/21 03:52:08;;;;;;;2.20;1.30;;;;;;;-4.40;60.84;101139.35;104789;1285;69270;-79
2021/12/21 03:54:39;;;;;;;3.10;1.90;;;;;;;-4.40;60.76;101128.30;104766;1287;72094;-77
2021/12/21 03:57:08;;;;;;;2.20;1.40;;;;;;;-4.37;60.65;101127.95;104804;1285;59167;-76
2021/12/21 03:59:38;;;;;;;7.00;1.40;;;;;;;-4.38;60.84;101128.63;104876;1286;59447;-77
2021/12/21 04:02:07;;;;;;;8.10;3.60;;;;;;;-4.40;60.45;101132.54;104915;1286;73675;-78
2021/12/21 04:04:36;;;;;;;6.10;2.20;;;;;;;-4.47;60.95;101135.64;104934;1284;73039;-79
2021/12/21 04:07:05;;;;;;;3.50;1.90;;;;;;;-4.53;61.00;101135.15;104991;1284;69622;-78
2021/12/21 04:09:34;;;;;;;3.70;1.80;;;;;;;-4.57;61.55;101137.02;104933;1284;72808;-80
2021/12/21 04:12:04;;;;;;;3.50;2.10;;;;;;;-4.58;62.07;101145.02;104983;1282;59086;-77
2021/12/21 04:14:34;;;;;;;2.90;1.80;;;;;;;-4.60;62.48;101145.52;104983;1284;59776;-79
2021/12/21 04:17:04;;;;;;;2.20;1.70;;;;;;;-4.57;62.37;101145.52;104883;1282;71609;-77
2021/12/21 04:19:32;;;;;;;3.20;2.10;;;;;;;-4.55;62.08;101149.09;104989;1281;73301;-76
2021/12/21 04:22:01;;;;;;;4.00;2.10;;;;;;;-4.62;62.26;101148.61;104940;1284;70897;-78
2021/12/21 04:24:30;;;;;;;2.20;1.60;;;;;;;-4.62;61.99;101149.45;104923;1282;72386;-78
2021/12/21 04:26:59;;;;;;;2.90;1.80;;;;;;;-4.62;62.59;101154.55;104960;1284;60204;-78
2021/12/21 04:29:28;;;;;;;3.30;1.80;;;;;;;-4.59;62.61;101149.79;104857;1287;60383;-82
2021/12/21 04:31:57;;;;;;;2.90;1.70;;;;;;;-4.56;62.14;101153.52;104983;1286;69891;-78
2021/12/21 04:34:26;;;;;;;2.50;2.10;;;;;;;-4.51;62.08;101162.68;104827;1287;70192;-79
2021/12/21 04:36:55;;;;;;;2.50;1.50;;;;;;;-4.49;61.81;101164.03;104955;1284;70226;-79
2021/12/21 04:39:39;;;;;;;3.00;1.90;;;;;;;-4.46;61.64;101158.07;104893;1285;73675;-79
2021/12/21 04:42:09;;;;;;;3.70;2.10;;;;;;;-4.47;61.55;101158.94;104975;1286;59376;-78
2021/12/21 04:44:37;;;;;;;3.00;2.20;;;;;;;-4.47;61.68;101175.77;105024;1282;60723;-75
2021/12/21 04:47:07;;;;;;;3.50;1.80;;;;;;;-4.49;61.84;101175.42;105005;1282;72959;-79
2021/12/21 04:49:35;;;;;;;3.70;2.00;;;;;;;-4.48;62.03;101174.41;105038;1282;70664;-78
2021/12/21 04:52:05;;;;;;;3.40;2.10;;;;;;;-4.49;61.98;101175.42;105016;1286;68369;-79
2021/12/21 04:54:34;;;;;;;3.10;1.70;;;;;;;-4.51;62.32;101188.02;104965;1282;72084;-79
2021/12/21 04:57:03;;;;;;;4.60;2.10;;;;;;;-4.50;62.31;101193.45;104887;1284;61107;-77
2021/12/21 04:59:32;;;;;;;2.20;1.30;;;;;;;-4.52;62.19;101199.23;104952;1282;59635;-76
2021/12/21 05:02:01;;;;;;;8.00;2.20;;;;;;;-4.56;62.94;101212.00;104929;1282;72652;-77
2021/12/21 05:04:30;;;;;;;3.90;2.10;;;;;;;-4.56;63.37;101214.20;104851;1286;71957;-80
2021/12/21 05:06:59;;;;;;;3.40;2.10;;;;;;;-4.58;63.72;101218.47;104946;1285;69601;-77
2021/12/21 05:09:36;;;;;;;4.10;2.70;;;;;;;-4.61;63.63;101222.71;104882;1284;72380;-77
2021/12/21 05:12:10;;;;;;;3.00;2.00;;;;;;;-4.64;63.78;101230.88;104965;1284;60686;-73
2021/12/21 05:14:39;;;;;;;5.50;2.80;;;;;;;-4.68;64.30;101231.75;104914;1285;61906;-72
2021/12/21 05:17:08;;;;;;;4.50;2.00;;;;;;;-4.71;64.79;101239.20;104692;1287;73417;-69
2021/12/21 05:19:37;;;;;;;3.40;1.90;;;;;;;-4.73;64.76;101241.42;104933;1285;70809;-70
2021/12/21 05:22:06;;;;;;;5.20;2.30;;;;;;;-4.80;64.85;101239.39;104834;1286;68799;-70
2021/12/21 05:24:35;;;;;;;5.10;2.50;;;;;;;-4.80;65.06;101232.95;104798;1286;71733;-71
2021/12/21 05:27:05;;;;;;;7.80;3.00;;;;;;;-4.85;65.39;101238.38;104929;1284;59569;-71
2021/12/21 05:29:34;;;;;;;5.70;2.80;;;;;;;-4.87;65.48;101245.02;104860;1285;59046;-72
2021/12/21 05:32:05;;;;;;;4.80;2.80;;;;;;;-4.93;65.58;101246.20;104947;1286;72686;-70
2021/12/21 05:34:33;;;;;;;3.80;2.30;;;;;;;-4.95;65.77;101250.45;104926;1286;70413;-70
2021/12/21 05:37:06;;;;;;;3.00;2.00;;;;;;;-4.99;65.94;101261.99;104987;1282;70604;-70
2021/12/21 05:40:08;;;;;;;4.80;2.60;;;;;;;-5.01;66.16;101261.83;104845;1286;72965;-70
2021/12/21 05:42:38;;;;;;;7.90;3.20;;;;;;;-4.98;66.01;101269.83;104967;1282;60763;-70
2021/12/21 05:45:09;;;;;;;6.20;2.90;;;;;;;-4.96;65.76;101279.50;104887;1286;59119;-71
2021/12/21 05:47:38;;;;;;;5.50;3.20;;;;;;;-4.98;65.59;101282.40;104582;1286;70815;-72
2021/12/21 05:50:11;;;;;;;4.40;2.70;;;;;;;-4.98;65.58;101291.39;104854;1286;70775;-73
2021/12/21 05:52:40;;;;;;;5.40;3.00;;;;;;;-4.97;65.78;101289.35;104838;1282;69823;-74
2021/12/21 05:55:09;;;;;;;5.00;2.40;;;;;;;-4.97;66.04;101288.51;104858;1284;73969;-71
2021/12/21 05:57:38;;;;;;;4.00;2.70;;;;;;;-4.98;66.03;101285.78;104834;1285;61414;-73
2021/12/21 06:00:14;;;;;;;3.00;2.00;;;;;;;-5.01;66.06;101287.31;104768;1287;60741;-72
2021/12/21 06:02:42;;;;;;;4.80;3.10;;;;;;;-5.05;66.13;101292.92;104881;1284;72927;-71
2021/12/21 06:05:12;;;;;;;3.50;2.10;;;;;;;-5.06;66.14;101297.32;104895;1285;72740;-70
2021/12/21 06:07:40;;;;;;;3.50;2.20;;;;;;;-5.04;66.06;101300.90;104875;1286;70880;-70
2021/12/21 06:10:17;;;;;;;4.80;2.50;;;;;;;-4.97;65.81;101301.24;104864;1285;75166;-71
2021/12/21 06:15:49;;;;;;;3.10;2.00;;;;;;;-4.72;65.61;101309.23;104937;1285;60804;-70
2021/12/21 06:26:43;;;;;;;4.20;2.40;;;;;;;-4.46;66.02;101319.77;104683;1283;72652;-74
2021/12/21 06:29:12;;;;;;;8.30;2.70;;;;;;;-4.39;67.08;101321.64;104777;1284;60445;-74
2021/12/21 06:31:42;;;;;;;7.60;3.30;;;;;;;-4.33;67.41;101325.02;104843;1282;61632;-73
2021/12/21 06:34:11;;;;;;;3.70;2.30;;;;;;;-4.39;67.60;101325.88;104396;1285;510920;-73
2021/12/21 06:36:40;;;;;;;5.90;3.30;;;;;;;-4.44;67.86;101327.77;104739;1284;73679;-72
2021/12/21 06:39:10;;;;;;;5.00;2.30;;;;;;;-4.45;68.00;101328.77;104748;1282;69161;-74
2021/12/21 06:41:39;;;;;;;5.80;2.90;;;;;;;-4.51;68.78;101333.38;105419;1284;74303;-72
2021/12/21 06:44:10;;;;;;;5.00;2.80;;;;;;;-4.56;69.21;101329.13;104810;1284;63503;-74
2021/12/21 06:52:02;;;;;;;10.20;4.40;;;;;;;-4.51;68.83;101330.48;104723;1282;71433;-73
2021/12/21 06:54:31;;;;;;;9.30;4.60;;;;;;;-4.51;68.80;101339.31;104630;1282;71051;-75
2021/12/21 06:57:00;;;;;;;5.50;2.80;;;;;;;-4.51;68.89;101344.09;104739;1284;73962;-73
2021/12/21 06:59:29;;;;;;;6.30;3.50;;;;;;;-4.48;69.03;101343.40;104724;1284;63481;-71
2021/12/21 07:01:58;;;;;;;7.40;4.10;;;;;;;-4.44;68.94;101342.55;104851;1282;60501;-74
2021/12/21 07:04:28;;;;;;;7.80;3.30;;;;;;;-4.43;67.66;101345.45;104740;1282;72190;-75
2021/12/21 07:06:58;;;;;;;7.80;4.40;;;;;;;-4.43;67.34;101344.77;104778;1282;72352;-75
2021/12/21 07:12:18;;;;;;;6.80;3.70;;;;;;;-4.32;65.90;101358.36;104754;1282;75260;-74
2021/12/21 07:20:21;;;;;;;5.60;3.20;;;;;;;-4.09;65.28;101353.90;104764;1282;72002;-72
2021/12/21 07:22:50;;;;;;;7.30;4.20;;;;;;;-4.13;65.14;101352.55;104791;1282;70546;-72
2021/12/21 07:25:19;;;;;;;4.30;3.10;;;;;;;-4.09;64.28;101348.30;104844;1282;68768;-72
2021/12/21 07:27:48;;;;;;;5.80;3.30;;;;;;;-4.10;64.11;101356.96;104896;1282;72924;-73
2021/12/21 07:30:20;;;;;;;5.70;3.30;;;;;;;-4.07;64.01;101357.83;104883;1284;59106;-73
2021/12/21 07:32:49;;;;;;;5.20;3.10;;;;;;;-4.03;63.90;101359.50;104926;1282;58982;-74
2021/12/21 07:35:18;;;;;;;5.20;2.40;;;;;;;-4.00;62.04;101355.41;104951;1282;71790;-74
2021/12/21 07:37:47;;;;;;;5.90;3.10;;;;;;;-3.92;61.46;101366.27;104913;1284;70794;-73
2021/12/21 07:40:16;;;;;;;6.80;3.50;;;;;;;-3.84;60.93;101363.70;104981;1282;68210;-75
2021/12/21 07:42:45;;;;;;;6.70;3.60;;;;;;;-3.80;60.23;101366.42;104949;1282;73822;-75
2021/12/21 07:45:14;;;;;;;6.00;3.20;;;;;;;-3.81;59.80;101358.94;104878;1282;60239;-74
2021/12/21 07:47:43;;;;;;;5.30;2.90;;;;;;;-3.81;59.46;101369.67;104871;1285;61940;-73
2021/12/21 07:50:14;;;;;;;6.70;2.20;;;;;;;-3.86;57.44;101356.23;104953;1281;74100;-74
2021/12/21 07:52:43;;;;;;;5.30;3.00;;;;;;;-3.75;57.33;101358.23;104923;1284;73884;-73
2021/12/21 07:55:12;;;;;;;4.90;3.00;;;;;;;-3.75;56.91;101360.28;104884;1283;67986;-72
2021/12/21 07:57:41;;;;;;;6.50;3.30;;;;;;;-3.64;56.75;101362.97;104778;1282;71877;-74
2021/12/21 08:00:11;;;;;;;4.90;2.60;;;;;;;-3.67;56.19;101364.52;104704;1284;61319;-75
2021/12/21 08:02:40;;;;;;;6.60;3.80;;;;;;;-3.70;55.38;101364.87;104776;1284;62177;-76
2021/12/21 08:05:10;;;;;;;7.60;4.30;;;;;;;-3.66;54.88;101368.25;104704;1284;75058;-76
2021/12/21 08:07:54;;;;;;;6.30;3.30;;;;;;;-3.68;54.48;101375.75;104716;1284;70951;-75
2021/12/21 08:10:30;;;;;;;5.80;3.40;;;;;;;-3.70;55.24;101370.30;104761;1282;68494;-74
2021/12/21 08:12:59;;;;;;;8.60;3.80;;;;;;;-3.62;54.73;101376.92;104655;1285;74977;-73
2021/12/21 08:15:29;;;;;;;5.60;2.50;;;;;;;-3.61;54.64;101376.91;104771;1285;60871;-76
2021/12/21 08:17:58;;;;;;;10.60;3.30;;;;;;;-3.56;53.98;101384.23;104781;1284;61077;-76
2021/12/21 08:20:27;;;;;;;9.40;4.20;;;;;;;-3.63;53.45;101380.17;104826;1284;75096;-76
2021/12/21 08:22:56;;;;;;;4.80;2.20;;;;;;;-3.49;53.82;101381.65;104961;1281;70811;-77
2021/12/21 08:25:27;;;;;;;6.40;2.80;;;;;;;-3.39;53.28;101380.40;105095;1284;69733;-72
2021/12/21 08:27:58;;;;;;;7.30;3.70;;;;;;;-3.40;52.60;101384.67;105598;1282;74302;-72
2021/12/21 08:30:27;;;;;;;5.20;2.60;;;;;;;-3.32;52.57;101382.42;105329;1280;61053;-74
2021/12/21 08:32:57;;;;;;;5.50;3.10;;;;;;;-3.24;52.26;101386.64;105079;1282;59463;-74
2021/12/21 08:35:27;;;;;;;4.60;3.30;;;;;;;-3.21;51.74;101386.97;104948;1284;72417;-75
2021/12/21 08:38:07;;;;;;;8.00;3.60;;;;;;;-3.18;51.15;101385.60;104884;1283;72716;-73
2021/12/21 08:40:40;;;;;;;4.20;2.60;;;;;;;-3.18;51.43;101388.66;104923;1282;71969;-75
2021/12/21 08:43:12;;;;;;;6.80;3.50;;;;;;;-3.15;51.67;101390.35;104935;1282;71852;-72
2021/12/21 08:45:44;;;;;;;6.30;3.80;;;;;;;-3.18;52.43;101396.34;104930;1282;59018;-73
2021/12/21 08:48:13;;;;;;;6.60;3.20;;;;;;;-3.18;52.89;101399.73;104900;1285;61377;-78
2021/12/21 08:50:45;;;;;;;13.40;5.80;;;;;;;-3.15;53.78;101401.09;104925;1282;73242;-75
2021/12/21 08:53:14;;;;;;;11.40;4.10;;;;;;;-3.11;53.50;101412.65;104960;1285;72407;-78
2021/12/21 08:55:44;;;;;;;8.30;2.80;;;;;;;-3.17;53.17;101406.02;104856;1284;70320;-72
2021/12/21 08:58:13;;;;;;;7.50;4.10;;;;;;;-3.15;53.02;101405.00;104905;1282;74052;-77
2021/12/21 09:00:42;;;;;;;4.90;3.00;;;;;;;-3.29;52.78;101403.02;104890;1282;62570;-74
2021/12/21 09:03:11;;;;;;;7.60;2.90;;;;;;;-3.33;52.34;101403.04;104821;1284;59626;-74
2021/12/21 09:05:41;;;;;;;6.50;3.20;;;;;;;-3.31;52.52;101394.00;104832;1282;72607;-77
2021/12/21 09:08:10;;;;;;;4.30;2.60;;;;;;;-3.14;52.60;101388.30;104902;1284;69734;-74
2021/12/21 09:10:40;;;;;;;6.30;3.60;;;;;;;-3.06;52.52;101384.17;104868;1284;69361;-73
2021/12/21 09:13:09;;;;;;;5.70;3.20;;;;;;;-3.06;52.58;101391.85;104905;1284;71719;-72
2021/12/21 09:15:44;;;;;;;5.10;3.00;;;;;;;-3.16;52.89;101383.38;104947;1282;59870;-75
2021/12/21 09:18:13;;;;;;;4.40;2.50;;;;;;;-3.23;53.49;101377.78;104974;1284;59424;-75
2021/12/21 09:20:41;;;;;;;4.70;2.60;;;;;;;-3.18;53.17;101376.22;104909;1284;74646;-73
2021/12/21 09:23:11;;;;;;;6.40;3.30;;;;;;;-3.13;52.72;101383.02;104891;1284;69916;-76
2021/12/21 09:25:40;;;;;;;4.00;2.70;;;;;;;-3.10;52.44;101384.88;104891;1282;70100;-74
2021/12/21 09:28:09;;;;;;;5.20;2.80;;;;;;;-2.97;50.83;101386.33;104893;1282;72550;-72
2021/12/21 09:30:39;;;;;;;4.70;2.90;;;;;;;-2.92;50.09;101383.58;104739;1284;59137;-73
2021/12/21 09:33:08;;;;;;;5.90;2.60;;;;;;;-2.84;49.55;101390.18;104820;1284;60587;-75
2021/12/21 09:35:36;;;;;;;3.30;2.20;;;;;;;-2.81;49.24;101382.65;104741;1282;74501;-75
2021/12/21 09:38:05;;;;;;;7.90;4.40;;;;;;;-2.78;49.62;101380.41;104749;1284;72490;-72
2021/12/21 09:40:39;;;;;;;6.80;3.90;;;;;;;-2.80;49.52;101381.46;104777;1285;69409;-77
2021/12/21 09:43:08;;;;;;;;;;;;;;;-2.80;49.34;101388.62;104744;1284;72959;-74
2021/12/21 09:45:38;;;;;;;5.50;3.10;;;;;;;-2.80;48.84;101392.02;104776;1282;59561;-75
2021/12/21 09:48:07;;;;;;;6.20;2.80;;;;;;;-2.87;49.15;101389.00;104775;1282;58944;-75
2021/12/21 09:50:36;;;;;;;5.70;3.20;;;;;;;-2.87;49.49;101395.83;104650;1281;72353;-77
2021/12/21 09:53:05;;;;;;;5.30;2.90;;;;;;;-2.90;50.18;101388.17;104738;1282;73266;-77
2021/12/21 09:55:34;;;;;;;6.50;3.30;;;;;;;-2.82;50.37;101389.48;104676;1284;71693;-75
2021/12/21 09:58:03;;;;;;;6.50;3.00;;;;;;;-2.83;49.87;101381.14;104722;1283;73194;-77
2021/12/21 10:00:33;;;;;;;4.50;2.80;;;;;;;-2.87;49.77;101388.14;104709;1282;58853;-75
2021/12/21 10:03:05;;;;;;;7.10;3.00;;;;;;;-2.98;49.95;101376.27;104727;1284;62314;-73
2021/12/21 10:05:40;;;;;;;4.50;2.80;;;;;;;-3.01;50.11;101377.83;104815;1282;73406;-74
2021/12/21 10:08:15;;;;;;;6.40;4.90;;;;;;;-3.04;50.35;101377.67;104672;1282;71582;-73
2021/12/21 10:10:50;;;;;;;7.80;4.10;;;;;;;-2.99;49.60;101384.48;104742;1282;69095;-75
2021/12/21 10:13:22;;;;;;;7.00;3.50;;;;;;;-3.00;50.22;101375.78;104723;1284;71749;-74
2021/12/21 10:15:58;;;;;;;5.10;3.80;;;;;;;-2.96;50.07;101376.77;104748;1282;61811;-74
2021/12/21 10:18:34;;;;;;;5.60;3.80;;;;;;;-2.92;50.27;101368.57;104701;1282;60167;-74
2021/12/21 10:21:05;;;;;;;4.70;2.70;;;;;;;-2.91;49.79;101390.56;104681;1282;72830;-74
2021/12/21 10:23:36;;;;;;;4.70;2.80;;;;;;;-2.90;48.72;101381.17;104671;1282;72640;-75
2021/12/21 10:26:10;;;;;;;4.90;2.60;;;;;;;-2.86;48.95;101384.73;104754;1282;69203;-76
2021/12/21 10:28:41;;;;;;;4.60;3.30;;;;;;;-2.82;48.77;101385.21;104739;1282;72121;-75
2021/12/21 10:31:22;;;;;;;6.10;3.80;;;;;;;-2.76;47.32;101377.69;104758;1284;60264;-77
2021/12/21 10:33:51;;;;;;;8.10;3.40;;;;;;;-2.72;47.68;101376.98;104793;1282;62087;-77
2021/12/21 10:36:20;;;;;;;4.90;3.50;;;;;;;-2.77;48.68;101382.29;104742;1284;72899;-76
2021/12/21 10:38:55;;;;;;;7.00;3.60;;;;;;;-2.74;48.31;101385.50;104740;1284;72541;-75
2021/12/21 10:41:32;;;;;;;7.40;3.60;;;;;;;-2.64;48.33;101376.91;104795;1282;69518;-73
2021/12/21 10:44:05;;;;;;;6.40;4.20;;;;;;;-2.65;48.38;101377.95;104901;1282;74008;-73
2021/12/21 10:46:38;;;;;;;5.50;3.40;;;;;;;-2.67;48.84;101378.64;104843;1282;61634;-75
2021/12/21 10:49:27;;;;;;;7.80;4.50;;;;;;;-2.65;48.64;101373.17;104628;1284;61898;-74
2021/12/21 10:52:07;;;;;;;5.80;3.30;;;;;;;-2.65;48.62;101384.94;104706;1282;72712;-74
2021/12/21 10:54:41;;;;;;;9.30;5.00;;;;;;;-2.65;48.49;101385.11;104805;1283;69764;-75
2021/12/21 10:57:17;;;;;;;6.50;4.10;;;;;;;-2.69;48.96;101389.40;104684;1283;71175;-76
2021/12/21 10:59:50;;;;;;;7.30;4.80;;;;;;;-2.65;49.22;101391.93;104612;1286;74737;-72
2021/12/21 11:02:34;;;;;;;6.00;3.50;;;;;;;-2.72;49.45;101388.05;104727;1282;60308;-72
2021/12/21 11:05:13;;;;;;;9.00;4.50;;;;;;;-2.74;49.88;101386.02;104880;1282;59059;-73
2021/12/21 11:10:19;;;;;;;7.90;3.40;;;;;;;-2.69;49.88;101380.70;104908;1284;71721;-74
2021/12/21 11:13:10;;;;;;;8.50;4.20;;;;;;;-2.70;50.64;101380.55;104852;1284;72267;-72
2021/12/21 11:15:52;;;;;;;5.30;2.90;;;;;;;-2.75;50.71;101382.27;104800;1282;73552;-76
2021/12/21 11:18:24;;;;;;;6.10;3.50;;;;;;;-2.82;49.67;101379.26;104705;1286;59440;-74
2021/12/21 11:20:56;;;;;;;6.20;3.10;;;;;;;-2.85;50.14;101387.62;104785;1283;59123;-79
2021/12/21 11:23:26;;;;;;;6.20;3.50;;;;;;;-2.84;50.36;101386.59;104782;1283;72112;-74
2021/12/21 11:25:56;;;;;;;4.70;2.70;;;;;;;-2.79;50.26;101389.12;104881;1283;70851;-73
2021/12/21 11:28:35;;;;;;;5.00;3.80;;;;;;;-2.81;50.00;101387.61;104882;1284;69264;-73
2021/12/21 11:31:07;;;;;;;6.00;4.40;;;;;;;-2.74;50.07;101371.19;104780;1286;75483;-74
2021/12/21 11:33:44;;;;;;;7.40;3.50;;;;;;;-2.67;50.14;101375.91;104676;1283;59580;-80
2021/12/21 11:39:03;;;;;;;6.80;4.00;;;;;;;-2.63;50.04;101386.80;104683;1282;72076;-74
2021/12/21 11:41:34;;;;;;;9.80;4.90;;;;;;;-2.65;50.13;101398.06;104655;1283;71889;-74
2021/12/21 11:44:14;;;;;;;6.10;3.40;;;;;;;-2.68;50.69;101393.83;104548;1284;71798;-75
2021/12/21 11:47:01;;;;;;;6.00;4.40;;;;;;;-2.64;50.65;101387.48;104550;1283;73389;-75
2021/12/21 11:49:42;;;;;;;6.40;3.90;;;;;;;-2.54;49.26;101394.73;104745;1284;60162;-74
2021/12/21 11:52:17;;;;;;;8.90;4.70;;;;;;;-2.49;47.30;101388.90;104705;1284;60699;-74
2021/12/21 11:54:54;;;;;;;5.60;3.60;;;;;;;-2.51;47.11;101389.44;104858;1282;71846;-78
2021/12/21 11:58:00;;;;;;;5.80;2.90;;;;;;;-2.54;44.42;101409.08;104881;1281;71581;-78
2021/12/21 12:00:34;;;;;;;5.90;2.60;;;;;;;-2.67;43.93;101405.58;104927;1282;72272;-83
2021/12/21 12:03:22;;;;;;;6.70;3.90;;;;;;;-2.72;43.87;101404.08;105098;1284;72758;-83
2021/12/21 12:06:05;;;;;;;9.20;3.00;;;;;;;-2.75;43.30;101407.67;105042;1284;61453;-76
2021/12/21 12:08:46;;;;;;;7.10;3.60;;;;;;;-2.30;43.95;101405.82;105128;1283;61060;-80
2021/12/21 12:11:22;;;;;;;8.50;4.50;;;;;;;-2.29;43.01;101413.15;105049;1282;72755;-76
2021/12/21 12:14:13;;;;;;;6.10;2.90;;;;;;;-2.38;44.06;101432.84;104970;1283;70763;-76
2021/12/21 12:16:45;;;;;;;8.60;3.70;;;;;;;-2.58;44.43;101423.09;104821;1282;69877;-80
2021/12/21 12:19:26;;;;;;;7.40;3.80;;;;;;;-2.57;45.60;101422.73;104855;1283;73991;-79
2021/12/21 12:22:15;;;;;;;7.40;4.10;;;;;;;-2.66;45.18;101426.55;104730;1285;60258;-78
2021/12/21 12:24:46;;;;;;;4.90;2.90;;;;;;;-2.66;44.70;101422.45;104765;1282;59008;-78
2021/12/21 12:27:20;;;;;;;6.80;3.60;;;;;;;-2.73;44.36;101435.29;104728;1284;71803;-74
2021/12/21 12:29:51;;;;;;;4.70;3.00;;;;;;;-2.70;44.56;101426.06;104694;1283;72700;-79
2021/12/21 12:32:43;;;;;;;3.90;2.70;;;;;;;-2.69;44.48;101424.52;104797;1282;69576;-78
2021/12/21 12:35:18;;;;;;;5.30;3.20;;;;;;;-2.75;45.29;101426.27;104945;1284;74410;-81
2021/12/21 12:37:59;;;;;;;9.20;4.40;;;;;;;-2.74;45.95;101421.48;104698;1284;61397;-76
2021/12/21 12:40:39;;;;;;;7.60;4.20;;;;;;;-2.80;46.38;101435.66;104834;1284;61336;-79
2021/12/21 12:43:16;;;;;;;5.70;3.20;;;;;;;-2.81;45.91;101436.35;104667;1282;74236;-78
2021/12/21 12:45:51;;;;;;;7.60;3.70;;;;;;;-2.85;46.38;101448.65;104527;1285;70940;-77
2021/12/21 12:48:47;;;;;;;7.60;4.90;;;;;;;-2.93;48.54;101469.14;104722;1282;69226;-73
2021/12/21 12:51:36;;;;;;;10.20;4.90;;;;;;;-3.09;54.04;101467.02;104761;1284;73992;-77
2021/12/21 12:54:16;;;;;;;8.00;5.10;;;;;;;-3.36;56.20;101468.81;104823;1284;61464;-80